Time;durP1;ratioP1;P1;durP2;ratioP2;P2;SDS_P1;SDS_P2;PMS_P1;PMS_P2;Temp;Humidity;BMP_temperature;BMP_pressure;BME280_temperature;BME280_humidity;BME280_pressure;Samples;Min_cycle;Max_cycle;Signal;HPM_P1;HPM_P2
2023/09/05 00:00:11;;;;;;;5.70;3.83;;;;;;;25.10;43.04;98783.31;5091621;28;20497;-45
2023/09/05 00:02:38;;;;;;;4.70;3.55;;;;;;;25.05;42.69;98794.13;5091963;28;20017;-45
2023/09/05 00:05:08;;;;;;;5.53;3.80;;;;;;;25.09;43.11;98787.06;5091440;28;20035;-45
2023/09/05 00:07:37;;;;;;;7.45;4.10;;;;;;;25.01;43.05;98782.38;5090215;28;20032;-45
2023/09/05 00:10:08;;;;;;;7.03;3.22;;;;;;;24.98;42.63;98786.44;5091921;28;20033;-45
2023/09/05 00:12:34;;;;;;;4.47;3.15;;;;;;;25.06;42.03;98790.34;5094218;28;20486;-45
2023/09/05 00:15:02;;;;;;;4.45;3.08;;;;;;;25.09;41.94;98779.00;5093907;28;20156;-45
2023/09/05 00:17:27;;;;;;;4.75;2.97;;;;;;;25.17;41.56;98783.72;5095418;28;20070;-45
2023/09/05 00:19:55;;;;;;;5.38;2.92;;;;;;;25.27;41.09;98793.53;5095344;28;20455;-45
2023/09/05 00:22:22;;;;;;;6.75;2.67;;;;;;;25.30;40.78;98787.56;5095253;28;20428;-45
2023/09/05 00:24:49;;;;;;;4.05;2.72;;;;;;;25.29;41.05;98789.47;5095089;28;20020;-45
2023/09/05 00:27:14;;;;;;;6.35;2.50;;;;;;;25.30;40.67;98787.56;5095153;28;20024;-45
2023/09/05 00:29:42;;;;;;;3.80;2.60;;;;;;;25.29;40.33;98791.34;5095502;28;20186;-45
2023/09/05 00:32:09;;;;;;;3.92;2.70;;;;;;;25.29;40.25;98785.97;5094110;28;20563;-46
2023/09/05 00:34:37;;;;;;;7.13;2.63;;;;;;;25.31;40.24;98789.16;5095013;28;20485;-45
2023/09/05 00:37:05;;;;;;;4.95;2.58;;;;;;;25.33;40.01;98789.66;5093693;28;20057;-45
2023/09/05 00:39:31;;;;;;;3.80;2.33;;;;;;;25.28;40.13;98798.59;5076871;28;20039;-45
2023/09/05 00:41:57;;;;;;;3.03;2.25;;;;;;;25.26;40.22;98789.25;5095006;28;20024;-45
2023/09/05 00:44:27;;;;;;;3.97;2.83;;;;;;;25.31;40.21;98795.34;5094888;28;20024;-45
2023/09/05 00:46:55;;;;;;;3.88;2.40;;;;;;;25.36;39.83;98782.91;5094846;28;20047;-45
2023/09/05 00:49:28;;;;;;;3.50;2.45;;;;;;;25.29;40.25;98791.34;5094749;28;20020;-45
2023/09/05 00:51:59;;;;;;;4.85;2.60;;;;;;;25.25;39.96;98790.34;5093699;28;20043;-45
2023/09/05 00:54:25;;;;;;;4.20;2.15;;;;;;;25.25;39.92;98793.03;5094747;28;20080;-45
2023/09/05 00:56:52;;;;;;;4.38;2.40;;;;;;;25.19;41.25;98803.00;5094594;28;20024;-45
2023/09/05 00:59:19;;;;;;;5.40;2.72;;;;;;;25.09;41.18;98793.25;5094603;28;20027;-45
2023/09/05 01:01:45;;;;;;;3.70;2.85;;;;;;;25.02;42.38;98802.78;5093336;28;20032;-45
2023/09/05 01:04:13;;;;;;;9.38;2.67;;;;;;;24.90;41.55;98797.84;5094476;28;20485;-45
2023/09/05 01:06:53;;;;;;;4.90;2.33;;;;;;;24.79;40.98;98796.41;5093452;28;20103;-45
2023/09/05 01:09:39;;;;;;;4.43;2.45;;;;;;;24.81;40.95;98789.66;5094490;28;20035;-46
2023/09/05 01:12:07;;;;;;;5.45;2.60;;;;;;;24.80;41.50;98790.75;5094392;28;20028;-45
2023/09/05 01:14:33;;;;;;;6.90;2.40;;;;;;;24.80;40.30;98796.13;5093959;28;20044;-45
2023/09/05 01:17:02;;;;;;;3.50;2.20;;;;;;;24.82;39.99;98793.16;5094277;28;20616;-45
2023/09/05 01:19:29;;;;;;;4.82;2.70;;;;;;;24.85;40.02;98797.91;5094183;28;20070;-45
2023/09/05 01:22:06;;;;;;;6.50;2.80;;;;;;;24.87;39.78;98798.41;5093039;28;20024;-45
2023/09/05 01:24:35;;;;;;;3.25;2.25;;;;;;;24.88;39.61;98797.34;5092989;28;20032;-45
2023/09/05 01:27:03;;;;;;;4.63;2.20;;;;;;;24.89;39.48;98799.75;5094019;28;20389;-45
2023/09/05 01:29:35;;;;;;;3.22;2.00;;;;;;;24.85;39.60;98797.91;5094048;28;20608;-45
2023/09/05 01:32:03;;;;;;;6.88;2.45;;;;;;;24.83;39.79;98798.22;5093973;28;20068;-45
2023/09/05 01:34:30;;;;;;;4.13;2.35;;;;;;;24.85;39.57;98801.41;5093937;28;20085;-45
2023/09/05 01:36:56;;;;;;;4.50;2.40;;;;;;;24.83;39.44;98808.97;5093923;28;20426;-45
2023/09/05 01:39:22;;;;;;;6.57;2.75;;;;;;;24.84;39.28;98799.03;5093916;28;20051;-45
2023/09/05 01:41:49;;;;;;;4.97;2.72;;;;;;;24.84;39.36;98813.22;5093777;28;20055;-45
2023/09/05 01:44:15;;;;;;;2.20;1.80;;;;;;;24.86;39.22;98805.69;5092660;28;20427;-45
2023/09/05 01:46:41;;;;;;;3.33;2.55;;;;;;;24.86;39.09;98811.06;5093571;28;20024;-46
2023/09/05 01:49:06;;;;;;;4.53;2.17;;;;;;;24.85;39.13;98809.47;5093690;28;20551;-45
2023/09/05 01:51:32;;;;;;;2.72;2.15;;;;;;;24.85;39.10;98819.38;5092259;28;20058;-46
2023/09/05 01:53:58;;;;;;;4.60;2.47;;;;;;;24.84;38.85;98825.88;5093492;28;20055;-45
2023/09/05 01:56:24;;;;;;;3.45;2.05;;;;;;;24.85;38.97;98836.31;5092422;28;20023;-45
2023/09/05 01:58:50;;;;;;;3.75;2.30;;;;;;;24.80;38.99;98831.00;5093404;28;20035;-45
2023/09/05 02:01:15;;;;;;;4.75;2.25;;;;;;;24.79;39.03;98831.28;5093420;28;20031;-45
2023/09/05 02:03:41;;;;;;;3.30;2.30;;;;;;;24.73;39.56;98835.97;5093244;28;20035;-45
2023/09/05 02:06:07;;;;;;;3.90;2.30;;;;;;;24.69;39.89;98834.94;5093278;28;20057;-45
2023/09/05 02:08:36;;;;;;;5.60;2.65;;;;;;;24.60;40.18;98831.31;5093273;28;20020;-45
2023/09/05 02:11:02;;;;;;;3.42;2.25;;;;;;;24.55;40.45;98837.53;5093242;28;20024;-45
2023/09/05 02:13:31;;;;;;;6.00;2.70;;;;;;;24.51;40.99;98836.53;5091591;28;20444;-45
2023/09/05 02:15:57;;;;;;;4.22;2.50;;;;;;;24.41;41.49;98834.72;5093144;28;20104;-45
2023/09/05 02:18:23;;;;;;;4.95;2.28;;;;;;;24.31;41.95;98841.03;5092983;28;20052;-46
2023/09/05 02:20:49;;;;;;;5.15;2.47;;;;;;;24.26;41.57;98829.53;5092985;28;20024;-45
2023/09/05 02:23:15;;;;;;;7.28;2.50;;;;;;;24.17;42.04;98831.28;5093207;28;20028;-45
2023/09/05 02:25:42;;;;;;;5.85;2.88;;;;;;;24.19;42.13;98837.94;5092862;28;20401;-46
2023/09/05 02:28:07;;;;;;;8.80;3.05;;;;;;;24.20;42.61;98836.84;5091839;28;20124;-45
2023/09/05 02:30:42;;;;;;;7.78;3.30;;;;;;;24.33;42.43;98836.16;5092813;28;20095;-45
2023/09/05 02:33:08;;;;;;;8.38;3.25;;;;;;;24.46;42.83;98836.53;5092562;28;20028;-45
2023/09/05 02:35:34;;;;;;;5.47;2.58;;;;;;;24.54;42.66;98848.56;5092716;28;20099;-45
2023/09/05 02:37:59;;;;;;;10.80;3.25;;;;;;;24.51;42.82;98848.03;5092692;28;20111;-45
2023/09/05 02:40:25;;;;;;;4.57;2.67;;;;;;;24.54;42.87;98845.88;5092652;28;20032;-45
2023/09/05 02:42:51;;;;;;;5.40;2.75;;;;;;;24.62;42.95;98854.06;5092642;28;20452;-45
2023/09/05 02:45:17;;;;;;;4.45;2.53;;;;;;;24.49;42.97;98854.75;5092687;28;20028;-46
2023/09/05 02:47:42;;;;;;;5.90;2.65;;;;;;;24.16;43.75;98862.63;5092523;28;20027;-45
2023/09/05 02:50:08;;;;;;;4.57;3.05;;;;;;;23.90;44.50;98859.44;5092491;28;20116;-45
2023/09/05 02:52:34;;;;;;;5.45;2.65;;;;;;;23.83;44.36;98859.00;5092397;28;20020;-45
2023/09/05 02:55:03;;;;;;;6.30;3.30;;;;;;;23.67;44.83;98858.31;5092409;28;20378;-45
2023/09/05 02:57:29;;;;;;;6.88;3.03;;;;;;;23.57;45.39;98874.47;5092369;28;20495;-45
2023/09/05 02:59:55;;;;;;;6.07;3.03;;;;;;;23.44;45.48;98868.69;5092358;28;20558;-45
2023/09/05 03:02:24;;;;;;;3.75;2.47;;;;;;;23.38;45.55;98863.63;5091176;28;20074;-45
2023/09/05 03:04:54;;;;;;;7.13;2.90;;;;;;;23.36;46.07;98877.28;5092174;28;20505;-45
2023/09/05 03:07:21;;;;;;;8.40;3.00;;;;;;;23.37;46.08;98870.88;5092187;28;20028;-45
2023/09/05 03:09:50;;;;;;;5.30;2.78;;;;;;;23.35;46.03;98869.56;5092107;28;20025;-45
2023/09/05 03:12:15;;;;;;;5.18;2.80;;;;;;;23.41;46.17;98869.22;5091123;28;20105;-45
2023/09/05 03:14:41;;;;;;;7.35;3.22;;;;;;;23.20;46.87;98876.63;5091884;28;20490;-45
2023/09/05 03:17:09;;;;;;;7.15;3.08;;;;;;;22.98;47.46;98877.00;5092023;28;20020;-45
2023/09/05 03:19:38;;;;;;;7.85;2.83;;;;;;;22.85;48.17;98877.59;5091991;28;20077;-45
2023/09/05 03:22:04;;;;;;;4.70;2.63;;;;;;;22.76;48.51;98871.22;5091953;28;20424;-45
2023/09/05 03:24:30;;;;;;;4.75;2.60;;;;;;;22.67;48.86;98874.47;5090905;28;20036;-45
2023/09/05 03:26:55;;;;;;;4.82;2.90;;;;;;;22.55;49.72;98863.31;5092005;28;20093;-45
2023/09/05 03:29:21;;;;;;;5.35;2.85;;;;;;;22.45;50.36;98877.50;5091996;28;20051;-45
2023/09/05 03:31:47;;;;;;;7.50;3.28;;;;;;;22.48;50.54;98871.63;5091848;28;20027;-45
2023/09/05 03:34:13;;;;;;;4.55;3.05;;;;;;;22.46;50.08;98870.31;5090582;28;20059;-45
2023/09/05 03:36:38;;;;;;;9.18;3.10;;;;;;;22.44;50.37;98881.28;5091848;28;20420;-45
2023/09/05 03:39:04;;;;;;;10.15;3.17;;;;;;;22.40;51.06;98876.75;5091876;28;20024;-45
2023/09/05 03:41:30;;;;;;;6.18;3.25;;;;;;;22.32;50.81;98875.44;5091746;28;20024;-45
2023/09/05 03:43:56;;;;;;;6.03;3.08;;;;;;;22.26;51.39;98871.19;5090463;28;20016;-45
2023/09/05 03:46:22;;;;;;;4.88;4.18;;;;;;;22.23;50.95;98872.47;5094487;28;20019;-45
2023/09/05 03:48:49;;;;;;;5.18;2.58;;;;;;;22.19;51.52;98870.63;5095924;28;20024;-45
2023/09/05 03:51:15;;;;;;;9.55;5.03;;;;;;;22.26;51.50;98865.84;5096128;28;20408;-45
2023/09/05 03:53:41;;;;;;;7.97;3.65;;;;;;;22.68;50.95;98859.25;5095877;28;20152;-45
2023/09/05 03:56:06;;;;;;;12.35;3.63;;;;;;;22.83;50.35;98863.72;5095862;28;20031;-45
2023/09/05 03:58:32;;;;;;;8.30;3.15;;;;;;;22.72;50.37;98863.75;5095793;28;20024;-45
2023/09/05 04:01:02;;;;;;;4.25;3.33;;;;;;;22.49;51.15;98864.41;5095767;28;20096;-45
2023/09/05 04:03:29;;;;;;;4.80;3.47;;;;;;;22.31;51.79;98871.16;5095681;28;20043;-45
2023/09/05 04:05:54;;;;;;;5.75;3.13;;;;;;;22.11;52.70;98862.13;5095670;28;20081;-45
2023/09/05 04:08:20;;;;;;;6.78;3.17;;;;;;;21.97;53.21;98868.28;5095594;28;20111;-45
2023/09/05 04:10:45;;;;;;;6.05;3.13;;;;;;;21.85;53.90;98858.69;5095637;28;20348;-45
2023/09/05 04:13:11;;;;;;;7.18;3.08;;;;;;;21.82;54.15;98861.09;5095282;28;20024;-45
2023/09/05 04:15:37;;;;;;;4.25;2.85;;;;;;;21.69;54.45;98859.75;5095550;28;20490;-45
2023/09/05 04:18:03;;;;;;;6.03;3.28;;;;;;;21.64;54.77;98859.78;5095460;28;20020;-45
2023/09/05 04:20:31;;;;;;;6.55;3.45;;;;;;;21.60;54.80;98858.72;5094254;28;20124;-45
2023/09/05 04:22:56;;;;;;;7.55;3.60;;;;;;;21.62;55.13;98852.03;5093920;28;20016;-45
2023/09/05 04:25:26;;;;;;;9.57;3.00;;;;;;;21.65;55.32;98856.84;5093910;28;20036;-45
2023/09/05 04:27:51;;;;;;;8.38;3.60;;;;;;;21.59;55.43;98863.28;5095181;28;20036;-45
2023/09/05 04:30:17;;;;;;;9.60;3.38;;;;;;;21.57;55.72;98859.25;5095531;28;20509;-45
2023/09/05 04:32:43;;;;;;;6.38;3.53;;;;;;;21.48;56.27;98857.09;5095108;28;20090;-45
2023/09/05 04:35:09;;;;;;;5.90;3.47;;;;;;;21.48;56.57;98850.97;5095041;28;20028;-45
2023/09/05 04:37:34;;;;;;;8.80;3.50;;;;;;;21.39;56.71;98848.03;5095112;28;20020;-45
2023/09/05 04:40:04;;;;;;;6.65;3.03;;;;;;;21.37;56.64;98849.34;5095033;28;20055;-45
2023/09/05 04:42:29;;;;;;;5.72;3.17;;;;;;;21.41;56.81;98845.06;5094870;28;20020;-45
2023/09/05 04:44:55;;;;;;;5.72;3.28;;;;;;;21.42;56.48;98844.00;5094865;28;20039;-45
2023/09/05 04:47:26;;;;;;;9.70;3.45;;;;;;;21.44;56.55;98841.91;5093514;28;20024;-45
2023/09/05 04:49:53;;;;;;;11.15;4.40;;;;;;;21.43;56.76;98843.78;5093520;28;20398;-45
2023/09/05 04:52:21;;;;;;;8.93;3.70;;;;;;;21.40;56.77;98849.59;5093506;28;20024;-45
2023/09/05 04:54:48;;;;;;;9.93;4.57;;;;;;;21.35;57.37;98853.09;5094767;28;20024;-45
2023/09/05 04:57:16;;;;;;;8.55;3.40;;;;;;;21.53;57.05;98857.13;5093265;28;20173;-45
2023/09/05 04:59:47;;;;;;;4.15;3.03;;;;;;;21.57;57.12;98849.38;5094587;28;20028;-45
2023/09/05 05:02:13;;;;;;;6.97;3.63;;;;;;;21.51;56.94;98845.91;5093308;28;20037;-45
2023/09/05 05:04:40;;;;;;;5.28;3.00;;;;;;;21.40;57.44;98848.81;5094499;28;20024;-45
2023/09/05 05:07:07;;;;;;;7.07;3.80;;;;;;;21.33;57.86;98846.41;5094732;28;20024;-45
2023/09/05 05:09:33;;;;;;;8.80;3.33;;;;;;;21.38;57.67;98856.28;5094439;28;20024;-45
2023/09/05 05:12:00;;;;;;;4.70;3.50;;;;;;;21.46;57.69;98858.47;5094351;28;20026;-45
2023/09/05 05:14:25;;;;;;;6.05;3.20;;;;;;;21.56;57.18;98863.00;5094130;28;20571;-44
2023/09/05 05:16:53;;;;;;;8.13;3.38;;;;;;;21.62;57.30;98861.91;5093246;28;20070;-45
2023/09/05 05:19:21;;;;;;;10.35;3.85;;;;;;;21.72;57.06;98877.94;5094214;28;20020;-45
2023/09/05 05:21:47;;;;;;;8.52;4.00;;;;;;;21.83;57.03;98873.38;5094549;28;20453;-45
2023/09/05 05:24:13;;;;;;;14.95;4.25;;;;;;;22.02;56.41;98877.09;5094169;28;20016;-45
2023/09/05 05:26:39;;;;;;;14.73;3.70;;;;;;;22.31;55.75;98876.50;5092857;28;20024;-45
2023/09/05 05:29:05;;;;;;;8.57;3.88;;;;;;;22.69;54.80;98872.31;5094091;28;20074;-45
2023/09/05 05:31:33;;;;;;;7.43;3.80;;;;;;;23.10;53.62;98874.81;5093967;28;20375;-45
2023/09/05 05:33:59;;;;;;;9.30;3.60;;;;;;;23.40;52.49;98880.22;5094663;28;20115;-45
2023/09/05 05:36:26;;;;;;;9.65;3.95;;;;;;;23.59;52.10;98880.34;5092676;28;20123;-45
2023/09/05 05:38:52;;;;;;;6.93;3.50;;;;;;;23.78;51.21;98877.78;5093964;28;20518;-45
2023/09/05 05:41:18;;;;;;;11.00;3.90;;;;;;;24.10;50.88;98867.25;5092566;28;20028;-45
2023/09/05 05:43:44;;;;;;;7.95;3.80;;;;;;;24.59;49.69;98870.75;5092729;28;20097;-45
2023/09/05 05:46:11;;;;;;;12.50;3.80;;;;;;;25.04;48.84;98868.53;5093744;28;20028;-45
2023/09/05 05:48:38;;;;;;;7.35;3.30;;;;;;;25.38;47.47;98872.09;5093666;28;20050;-45
2023/09/05 05:51:04;;;;;;;9.85;3.67;;;;;;;25.67;46.73;98867.25;5092442;28;20520;-45
2023/09/05 05:53:29;;;;;;;9.38;3.47;;;;;;;25.98;46.06;98882.09;5093622;28;20104;-45
2023/09/05 05:55:55;;;;;;;6.97;3.45;;;;;;;26.21;45.07;98874.94;5093596;28;20375;-45
2023/09/05 05:58:21;;;;;;;5.00;3.60;;;;;;;26.28;44.91;98869.97;5093465;28;20508;-45
2023/09/05 06:00:50;;;;;;;13.30;3.95;;;;;;;26.45;44.35;98866.66;5092146;28;20039;-45
2023/09/05 06:03:17;;;;;;;9.50;3.83;;;;;;;26.77;44.02;98867.63;5093286;28;20020;-45
2023/09/05 06:05:44;;;;;;;7.55;3.53;;;;;;;27.04;43.42;98858.66;5075460;28;20020;-45
2023/09/05 06:08:10;;;;;;;7.68;3.42;;;;;;;27.09;42.92;98862.03;5092814;28;20024;-45
2023/09/05 06:10:36;;;;;;;9.05;4.25;;;;;;;26.89;43.00;98868.69;5091919;28;20031;-46
2023/09/05 06:13:04;;;;;;;8.75;3.53;;;;;;;26.67;43.75;98874.03;5093250;28;20558;-45
2023/09/05 06:15:31;;;;;;;12.30;4.22;;;;;;;26.68;44.33;98872.91;5091991;28;20028;-45
2023/09/05 06:17:57;;;;;;;8.13;4.20;;;;;;;26.78;44.28;98883.47;5092107;28;20049;-45
2023/09/05 06:20:23;;;;;;;9.75;4.00;;;;;;;27.05;43.63;98873.75;5091711;28;20089;-45
2023/09/05 06:22:49;;;;;;;8.48;5.53;;;;;;;27.36;43.52;98881.13;5091772;28;20123;-45
2023/09/05 06:25:16;;;;;;;9.98;4.40;;;;;;;27.68;42.49;98878.16;5093109;28;20024;-45
2023/09/05 06:27:43;;;;;;;9.43;4.45;;;;;;;27.65;42.79;98883.38;5092890;28;20051;-45
2023/09/05 06:30:10;;;;;;;6.00;3.80;;;;;;;27.41;43.50;98872.94;5092769;28;20032;-45
2023/09/05 06:32:35;;;;;;;9.43;3.97;;;;;;;27.50;42.92;98873.75;5091516;28;20046;-45
2023/09/05 06:35:01;;;;;;;8.15;4.80;;;;;;;27.62;42.89;98867.81;5091464;28;20497;-45
2023/09/05 06:37:28;;;;;;;13.98;9.00;;;;;;;27.99;41.90;98873.88;5091705;28;20027;-45
2023/09/05 06:39:55;;;;;;;13.93;8.45;;;;;;;28.27;41.28;98872.59;5092696;28;20489;-45
2023/09/05 06:42:21;;;;;;;12.10;6.05;;;;;;;28.39;40.69;98877.38;5092678;28;20023;-45
2023/09/05 06:44:48;;;;;;;12.45;6.43;;;;;;;28.49;41.03;98879.78;5092567;28;20028;-45
2023/09/05 06:47:14;;;;;;;11.70;7.25;;;;;;;28.89;40.26;98878.91;5092536;28;20027;-45
2023/09/05 06:49:39;;;;;;;12.85;5.07;;;;;;;29.42;39.07;98882.44;5092578;28;20027;-45
2023/09/05 06:52:06;;;;;;;12.77;8.35;;;;;;;29.99;38.52;98886.75;5091134;28;20024;-45
2023/09/05 06:54:32;;;;;;;14.48;5.55;;;;;;;30.40;37.57;98888.00;5092333;28;20039;-45
2023/09/05 06:56:58;;;;;;;13.70;10.32;;;;;;;30.71;37.16;98878.72;5092311;28;20047;-46
2023/09/05 06:59:24;;;;;;;9.15;4.68;;;;;;;30.48;36.54;98881.75;5091129;28;20056;-46
2023/09/05 07:01:49;;;;;;;14.48;5.75;;;;;;;29.89;37.73;98890.59;5091081;28;20234;-45
2023/09/05 07:04:15;;;;;;;7.20;3.95;;;;;;;29.64;38.36;98876.81;5090836;28;20031;-45
2023/09/05 07:06:41;;;;;;;74.47;63.47;;;;;;;29.59;38.45;98885.09;5092198;28;20091;-45
2023/09/05 07:09:07;;;;;;;13.38;9.55;;;;;;;29.72;38.56;98883.34;5092115;28;20032;-45
2023/09/05 07:11:33;;;;;;;20.65;10.30;;;;;;;29.83;38.22;98879.16;5074062;28;20035;-46
2023/09/05 07:13:59;;;;;;;10.63;5.50;;;;;;;30.02;38.34;98884.19;5091836;28;20047;-46
2023/09/05 07:16:25;;;;;;;26.52;14.43;;;;;;;29.90;38.60;98886.75;5092026;28;20024;-46
2023/09/05 07:18:51;;;;;;;26.58;14.45;;;;;;;29.85;38.85;98887.75;5092081;28;20032;-46
2023/09/05 07:21:17;;;;;;;39.90;26.05;;;;;;;29.94;38.76;98886.91;5091131;28;20069;-46
2023/09/05 07:23:43;;;;;;;115.28;100.78;;;;;;;30.16;38.47;98880.47;5091860;28;20024;-45
2023/09/05 07:26:09;;;;;;;21.67;12.82;;;;;;;30.21;38.19;98872.97;5090684;28;20024;-46
2023/09/05 07:28:35;;;;;;;11.15;4.57;;;;;;;30.17;38.49;98890.19;5091993;28;20028;-46
2023/09/05 07:31:03;;;;;;;9.90;3.92;;;;;;;30.50;38.26;98889.56;5091928;28;20024;-46
2023/09/05 07:33:29;;;;;;;12.43;4.38;;;;;;;31.30;36.89;98889.47;5091906;28;20056;-46
2023/09/05 07:35:55;;;;;;;7.07;3.42;;;;;;;31.96;35.61;98885.91;5090557;28;20059;-46
2023/09/05 07:38:21;;;;;;;9.25;3.40;;;;;;;32.41;34.63;98879.59;5091760;28;20035;-46
2023/09/05 07:40:48;;;;;;;10.07;5.95;;;;;;;32.91;33.69;98876.84;5091799;28;20024;-46
2023/09/05 07:43:14;;;;;;;13.15;3.95;;;;;;;33.95;32.86;98876.91;5091766;28;20019;-46
2023/09/05 07:45:40;;;;;;;10.82;3.40;;;;;;;34.70;31.02;98873.22;5091748;28;20046;-46
2023/09/05 07:48:09;;;;;;;10.65;3.65;;;;;;;35.42;30.03;98874.66;5090360;28;20025;-46
2023/09/05 07:50:35;;;;;;;11.43;3.45;;;;;;;35.96;29.18;98864.66;5091760;28;20095;-46
2023/09/05 07:53:01;;;;;;;13.57;4.85;;;;;;;36.51;28.80;98872.56;5090430;28;20493;-46
2023/09/05 07:55:27;;;;;;;7.95;2.97;;;;;;;36.66;28.20;98865.34;5090341;28;20071;-45
2023/09/05 07:57:53;;;;;;;7.47;2.85;;;;;;;36.27;28.29;98862.84;5091673;28;20070;-46
2023/09/05 08:00:20;;;;;;;14.70;10.57;;;;;;;35.92;28.43;98870.09;5090305;28;20371;-46
2023/09/05 08:02:46;;;;;;;12.73;5.20;;;;;;;35.86;28.32;98866.09;5091665;28;20016;-46
2023/09/05 08:05:12;;;;;;;6.03;2.63;;;;;;;35.91;27.56;98867.72;5091480;28;20021;-46
2023/09/05 08:07:38;;;;;;;6.70;3.13;;;;;;;36.27;27.67;98869.09;5091625;28;20027;-46
2023/09/05 08:10:07;;;;;;;8.32;3.45;;;;;;;37.15;26.64;98861.66;5091602;28;20085;-46
2023/09/05 08:12:33;;;;;;;7.45;2.80;;;;;;;38.06;25.46;98866.84;5091543;28;20489;-46
2023/09/05 08:14:59;;;;;;;11.75;4.75;;;;;;;38.43;25.24;98866.66;5091282;28;20160;-46
2023/09/05 08:17:25;;;;;;;7.55;3.22;;;;;;;38.50;23.73;98868.69;5091478;28;20549;-46
2023/09/05 08:19:51;;;;;;;5.25;3.47;;;;;;;38.29;24.16;98867.38;5091492;28;20036;-46
2023/09/05 08:22:17;;;;;;;10.00;2.80;;;;;;;38.43;23.62;98868.63;5091424;28;20150;-46
2023/09/05 08:24:43;;;;;;;9.40;2.50;;;;;;;38.50;22.95;98866.72;5091350;28;20024;-46
2023/09/05 08:27:19;;;;;;;30.88;4.85;;;;;;;38.46;23.59;98868.66;5091342;28;20020;-46
2023/09/05 08:29:45;;;;;;;43.65;5.15;;;;;;;39.01;23.01;98873.25;5091378;28;20039;-46
2023/09/05 08:32:11;;;;;;;22.45;3.58;;;;;;;39.00;22.12;98873.63;5093570;28;20028;-46
2023/09/05 08:34:38;;;;;;;27.42;5.10;;;;;;;38.51;23.30;98865.56;5095146;28;20020;-46
2023/09/05 08:37:04;;;;;;;145.25;12.77;;;;;;;38.40;23.31;98864.69;5095047;28;20390;-46
2023/09/05 08:39:30;;;;;;;15.82;2.70;;;;;;;38.56;23.20;98861.69;5093804;28;20036;-46
2023/09/05 08:41:56;;;;;;;13.43;3.17;;;;;;;38.49;22.98;98856.13;5093975;28;20180;-46
2023/09/05 08:44:22;;;;;;;11.52;3.50;;;;;;;38.27;23.07;98857.97;5095098;28;20070;-46
2023/09/05 08:46:50;;;;;;;8.73;3.35;;;;;;;37.45;23.96;98869.78;5094834;28;20513;-46
2023/09/05 08:49:15;;;;;;;11.45;3.88;;;;;;;37.03;24.58;98859.94;5094900;28;20024;-46
2023/09/05 08:51:44;;;;;;;12.82;3.85;;;;;;;37.25;24.68;98857.44;5093627;28;20018;-46
2023/09/05 08:54:16;;;;;;;6.63;2.97;;;;;;;36.84;24.46;98854.63;5094756;28;20035;-46
2023/09/05 08:56:42;;;;;;;6.97;3.15;;;;;;;36.33;25.41;98856.69;5093559;28;20085;-46
2023/09/05 08:59:09;;;;;;;12.25;3.65;;;;;;;36.46;25.46;98868.16;5094616;28;20020;-46
2023/09/05 09:01:35;;;;;;;13.48;3.92;;;;;;;36.54;25.75;98867.13;5094600;28;20027;-46
2023/09/05 09:04:01;;;;;;;9.23;2.72;;;;;;;36.58;26.16;98867.16;5093253;28;20564;-46
2023/09/05 09:06:27;;;;;;;13.27;3.30;;;;;;;36.83;25.36;98866.75;5094544;28;20091;-46
2023/09/05 09:08:54;;;;;;;39.08;5.00;;;;;;;36.45;25.86;98868.56;5094537;28;20020;-46
2023/09/05 09:11:21;;;;;;;8.77;2.90;;;;;;;35.96;25.85;98867.41;5094427;28;20490;-46
2023/09/05 09:13:57;;;;;;;6.80;2.45;;;;;;;35.83;26.29;98872.28;5093080;28;20058;-46
2023/09/05 09:16:23;;;;;;;7.38;2.90;;;;;;;35.87;26.65;98866.88;5094422;28;20573;-46
2023/09/05 09:18:50;;;;;;;7.18;2.55;;;;;;;36.17;26.00;98869.72;5094355;28;20056;-46
2023/09/05 09:21:21;;;;;;;7.28;2.80;;;;;;;36.09;25.63;98868.00;5094169;28;20024;-46
2023/09/05 09:23:47;;;;;;;24.20;3.45;;;;;;;35.75;26.55;98865.91;5094255;28;20041;-46
2023/09/05 09:26:13;;;;;;;11.93;3.15;;;;;;;36.02;26.25;98865.16;5094159;28;20104;-46
2023/09/05 09:28:39;;;;;;;19.38;3.85;;;;;;;36.24;26.14;98858.91;5094126;28;20106;-46
2023/09/05 09:31:11;;;;;;;6.95;2.60;;;;;;;36.50;25.32;98855.38;5094021;28;20016;-46
2023/09/05 09:33:37;;;;;;;3.80;2.70;;;;;;;36.77;24.99;98847.13;5094132;28;20032;-46
2023/09/05 09:36:04;;;;;;;9.20;3.22;;;;;;;37.08;25.02;98845.13;5094002;28;20024;-46
2023/09/05 09:38:30;;;;;;;49.30;5.30;;;;;;;37.54;24.61;98834.66;5093961;28;20032;-46
2023/09/05 09:41:01;;;;;;;9.20;3.28;;;;;;;37.53;24.18;98841.31;5092559;28;20024;-46
2023/09/05 09:43:31;;;;;;;10.10;3.88;;;;;;;37.17;24.87;98832.75;5092868;28;20112;-46
2023/09/05 09:46:00;;;;;;;12.50;3.78;;;;;;;37.65;24.15;98842.22;5092807;28;20062;-46
2023/09/05 09:48:28;;;;;;;80.65;10.27;;;;;;;37.98;24.31;98844.03;5092440;28;20028;-46
2023/09/05 09:51:00;;;;;;;11.63;3.42;;;;;;;38.42;23.69;98832.19;5092394;28;20107;-46
2023/09/05 09:53:39;;;;;;;5.82;2.70;;;;;;;38.90;22.95;98834.78;5093688;28;20031;-46
2023/09/05 09:56:19;;;;;;;7.40;3.03;;;;;;;39.23;22.98;98830.16;5092421;28;20439;-46
2023/09/05 09:58:48;;;;;;;8.30;2.97;;;;;;;39.46;22.50;98823.53;5093578;28;20020;-47
2023/09/05 10:01:14;;;;;;;19.70;8.57;;;;;;;39.85;22.18;98820.03;5093681;28;20066;-47
2023/09/05 10:03:46;;;;;;;7.60;3.13;;;;;;;39.86;22.25;98827.06;5093321;28;20092;-46
2023/09/05 10:06:12;;;;;;;12.07;4.15;;;;;;;40.43;21.96;98826.22;5093412;28;20073;-47
2023/09/05 10:08:39;;;;;;;3.63;2.80;;;;;;;40.46;21.14;98815.19;5093327;28;20028;-47
2023/09/05 10:11:06;;;;;;;5.85;3.17;;;;;;;39.73;22.08;98824.72;5093250;28;20024;-47
2023/09/05 10:13:35;;;;;;;8.13;2.72;;;;;;;39.25;22.63;98821.53;5092985;28;20055;-47
2023/09/05 10:16:01;;;;;;;15.13;3.53;;;;;;;39.10;23.24;98820.72;5093227;28;20079;-47
2023/09/05 10:18:29;;;;;;;4.10;2.50;;;;;;;39.27;22.62;98824.69;5093233;28;20024;-47
2023/09/05 10:21:00;;;;;;;6.95;2.65;;;;;;;38.80;22.64;98805.34;5093349;28;20040;-46
2023/09/05 10:23:29;;;;;;;4.55;2.70;;;;;;;38.25;23.09;98811.72;5093036;28;20016;-46
2023/09/05 10:25:57;;;;;;;6.95;3.10;;;;;;;38.05;24.26;98807.66;5093283;28;20063;-47
2023/09/05 10:28:28;;;;;;;8.13;2.53;;;;;;;38.32;23.71;98805.50;5092930;28;20024;-47
2023/09/05 10:31:04;;;;;;;6.53;2.40;;;;;;;38.59;23.38;98810.75;5093282;28;20032;-46
2023/09/05 10:33:36;;;;;;;8.13;2.65;;;;;;;38.69;23.59;98807.25;5092970;28;20031;-47
2023/09/05 10:36:03;;;;;;;9.63;2.55;;;;;;;39.11;23.18;98794.84;5091485;28;20032;-47
2023/09/05 10:38:36;;;;;;;5.53;2.28;;;;;;;39.47;22.73;98787.47;5092729;28;20034;-47
2023/09/05 10:41:02;;;;;;;5.07;2.38;;;;;;;39.57;21.98;98785.88;5091580;28;20043;-47
2023/09/05 10:43:28;;;;;;;4.13;2.40;;;;;;;38.73;22.85;98788.84;5092609;28;20020;-47
2023/09/05 10:45:56;;;;;;;5.63;2.13;;;;;;;38.13;23.48;98785.44;5091301;28;20039;-46
2023/09/05 10:48:34;;;;;;;10.30;2.53;;;;;;;37.95;23.53;98788.06;5091197;28;20036;-47
2023/09/05 10:51:10;;;;;;;4.80;2.40;;;;;;;37.86;23.53;98784.84;5092506;28;20016;-47
2023/09/05 10:53:39;;;;;;;4.78;2.55;;;;;;;37.71;24.07;98780.44;5092459;28;20494;-47
2023/09/05 10:56:05;;;;;;;4.28;2.13;;;;;;;37.32;24.78;98778.94;5091261;28;20027;-46
2023/09/05 10:58:53;;;;;;;6.57;2.70;;;;;;;37.26;25.09;98774.97;5092435;28;20024;-46
2023/09/05 11:01:31;;;;;;;7.80;2.70;;;;;;;37.22;25.15;98774.16;5092339;28;20028;-46
2023/09/05 11:04:10;;;;;;;14.57;2.97;;;;;;;37.70;25.10;98776.13;5092260;28;20031;-46
2023/09/05 11:06:39;;;;;;;3.90;2.00;;;;;;;38.15;22.93;98774.88;5092284;28;20379;-46
2023/09/05 11:09:06;;;;;;;12.65;2.97;;;;;;;38.13;23.90;98769.00;5092231;28;20039;-47
2023/09/05 11:11:32;;;;;;;6.07;2.70;;;;;;;38.47;23.17;98760.50;5092563;28;20503;-47
2023/09/05 11:13:58;;;;;;;7.38;2.60;;;;;;;38.78;23.14;98761.06;5091931;28;20043;-47
2023/09/05 11:16:24;;;;;;;6.90;2.50;;;;;;;39.18;22.54;98761.94;5090744;28;20044;-47
2023/09/05 11:18:56;;;;;;;8.90;2.72;;;;;;;39.02;22.14;98758.75;5092368;28;20046;-46
2023/09/05 11:21:24;;;;;;;5.60;2.08;;;;;;;38.73;22.03;98753.19;5092069;28;20114;-47
2023/09/05 11:23:54;;;;;;;5.72;3.10;;;;;;;38.36;22.84;98755.00;5090994;28;20032;-47
2023/09/05 11:26:21;;;;;;;6.57;2.80;;;;;;;38.98;22.93;98747.78;5090799;28;20081;-47
2023/09/05 11:28:51;;;;;;;3.85;2.10;;;;;;;39.14;22.48;98747.41;5073898;28;20020;-47
2023/09/05 11:31:17;;;;;;;2.88;2.25;;;;;;;39.10;22.36;98754.84;5090651;28;20035;-47